sensor_id;sensor_type;location;lat;lon;timestamp;temperature;humidity
60293;DHT22;52402;52.670;6.750;2023-08-08T00:00:29;12.70;99.90
60293;DHT22;52402;52.670;6.750;2023-08-08T00:02:56;12.80;99.90
60293;DHT22;52402;52.670;6.750;2023-08-08T00:05:22;12.80;99.90
60293;DHT22;52402;52.670;6.750;2023-08-08T00:07:47;12.80;99.90
60293;DHT22;52402;52.670;6.750;2023-08-08T00:10:13;12.70;99.90
60293;DHT22;52402;52.670;6.750;2023-08-08T00:12:39;12.80;99.90
60293;DHT22;52402;52.670;6.750;2023-08-08T00:15:05;12.80;99.90
60293;DHT22;52402;52.670;6.750;2023-08-08T00:17:31;12.80;99.90
60293;DHT22;52402;52.670;6.750;2023-08-08T00:19:57;12.80;99.90
60293;DHT22;52402;52.670;6.750;2023-08-08T00:22:22;12.80;99.90
60293;DHT22;52402;52.670;6.750;2023-08-08T00:24:48;12.80;99.90
60293;DHT22;52402;52.670;6.750;2023-08-08T00:27:14;12.90;99.90
60293;DHT22;52402;52.670;6.750;2023-08-08T00:29:39;12.90;99.90
60293;DHT22;52402;52.670;6.750;2023-08-08T00:32:05;13.00;99.90
60293;DHT22;52402;52.670;6.750;2023-08-08T00:34:31;13.00;99.90
60293;DHT22;52402;52.670;6.750;2023-08-08T00:36:56;13.00;99.90
60293;DHT22;52402;52.670;6.750;2023-08-08T00:39:22;13.10;99.90
60293;DHT22;52402;52.670;6.750;2023-08-08T00:41:48;13.10;99.90
60293;DHT22;52402;52.670;6.750;2023-08-08T00:44:14;13.10;99.90
60293;DHT22;52402;52.670;6.750;2023-08-08T00:46:39;13.10;99.90
60293;DHT22;52402;52.670;6.750;2023-08-08T00:49:05;13.10;99.90
60293;DHT22;52402;52.670;6.750;2023-08-08T00:51:31;13.20;99.90
60293;DHT22;52402;52.670;6.750;2023-08-08T00:53:57;13.20;99.90
60293;DHT22;52402;52.670;6.750;2023-08-08T00:56:23;13.20;99.90
60293;DHT22;52402;52.670;6.750;2023-08-08T00:58:48;13.20;99.90
60293;DHT22;52402;52.670;6.750;2023-08-08T01:01:17;13.20;99.90
60293;DHT22;52402;52.670;6.750;2023-08-08T01:03:43;13.30;99.90
60293;DHT22;52402;52.670;6.750;2023-08-08T01:09:00;13.30;99.90
60293;DHT22;52402;52.670;6.750;2023-08-08T01:11:27;13.30;99.90
60293;DHT22;52402;52.670;6.750;2023-08-08T01:13:54;13.30;99.90
60293;DHT22;52402;52.670;6.750;2023-08-08T01:16:21;13.30;99.90
60293;DHT22;52402;52.670;6.750;2023-08-08T01:18:47;13.30;99.90
60293;DHT22;52402;52.670;6.750;2023-08-08T01:21:15;13.30;99.90
60293;DHT22;52402;52.670;6.750;2023-08-08T01:23:52;13.30;99.90
60293;DHT22;52402;52.670;6.750;2023-08-08T01:26:20;13.30;99.90
60293;DHT22;52402;52.670;6.750;2023-08-08T01:28:47;13.30;99.90
60293;DHT22;52402;52.670;6.750;2023-08-08T01:31:12;13.30;99.90
60293;DHT22;52402;52.670;6.750;2023-08-08T01:33:38;13.30;99.90
60293;DHT22;52402;52.670;6.750;2023-08-08T01:36:15;13.30;99.90
60293;DHT22;52402;52.670;6.750;2023-08-08T01:38:47;13.30;99.90
60293;DHT22;52402;52.670;6.750;2023-08-08T01:41:14;13.40;99.90
60293;DHT22;52402;52.670;6.750;2023-08-08T01:43:41;13.40;99.90
60293;DHT22;52402;52.670;6.750;2023-08-08T01:46:07;13.40;99.90
60293;DHT22;52402;52.670;6.750;2023-08-08T01:48:33;13.40;99.90
60293;DHT22;52402;52.670;6.750;2023-08-08T01:50:59;13.40;99.90
60293;DHT22;52402;52.670;6.750;2023-08-08T01:53:25;13.50;99.90
60293;DHT22;52402;52.670;6.750;2023-08-08T01:55:50;13.50;99.90
60293;DHT22;52402;52.670;6.750;2023-08-08T01:58:17;13.50;99.90
60293;DHT22;52402;52.670;6.750;2023-08-08T02:00:43;13.50;99.90
60293;DHT22;52402;52.670;6.750;2023-08-08T02:03:11;13.50;99.90
60293;DHT22;52402;52.670;6.750;2023-08-08T02:05:36;13.60;99.90
60293;DHT22;52402;52.670;6.750;2023-08-08T02:08:02;13.50;99.90
60293;DHT22;52402;52.670;6.750;2023-08-08T02:10:28;13.50;99.90
60293;DHT22;52402;52.670;6.750;2023-08-08T02:12:54;13.50;99.90
60293;DHT22;52402;52.670;6.750;2023-08-08T02:15:22;13.60;99.90
60293;DHT22;52402;52.670;6.750;2023-08-08T02:17:49;13.50;99.90
60293;DHT22;52402;52.670;6.750;2023-08-08T02:20:15;13.60;99.90
60293;DHT22;52402;52.670;6.750;2023-08-08T02:22:41;13.60;99.90
60293;DHT22;52402;52.670;6.750;2023-08-08T02:25:06;13.60;99.90
60293;DHT22;52402;52.670;6.750;2023-08-08T02:27:32;13.60;99.90
60293;DHT22;52402;52.670;6.750;2023-08-08T02:29:58;13.60;99.90
60293;DHT22;52402;52.670;6.750;2023-08-08T02:32:24;13.60;99.90
60293;DHT22;52402;52.670;6.750;2023-08-08T02:34:49;13.60;99.90
60293;DHT22;52402;52.670;6.750;2023-08-08T02:37:15;13.60;99.90
60293;DHT22;52402;52.670;6.750;2023-08-08T02:39:43;13.60;99.90
60293;DHT22;52402;52.670;6.750;2023-08-08T02:42:09;13.60;99.90
60293;DHT22;52402;52.670;6.750;2023-08-08T02:44:35;13.60;99.90
60293;DHT22;52402;52.670;6.750;2023-08-08T02:47:00;13.60;99.90
60293;DHT22;52402;52.670;6.750;2023-08-08T02:49:26;13.60;99.90
60293;DHT22;52402;52.670;6.750;2023-08-08T02:51:51;13.60;99.90
60293;DHT22;52402;52.670;6.750;2023-08-08T02:54:17;13.60;99.90
60293;DHT22;52402;52.670;6.750;2023-08-08T02:56:43;13.60;99.90
60293;DHT22;52402;52.670;6.750;2023-08-08T02:59:08;13.60;99.90
60293;DHT22;52402;52.670;6.750;2023-08-08T03:01:34;13.60;99.90
60293;DHT22;52402;52.670;6.750;2023-08-08T03:04:05;13.60;99.90
60293;DHT22;52402;52.670;6.750;2023-08-08T03:06:31;13.60;99.90
60293;DHT22;52402;52.670;6.750;2023-08-08T03:08:57;13.60;99.90
60293;DHT22;52402;52.670;6.750;2023-08-08T03:11:23;13.50;99.90
60293;DHT22;52402;52.670;6.750;2023-08-08T03:13:49;13.60;99.90
60293;DHT22;52402;52.670;6.750;2023-08-08T03:16:14;13.50;99.90
60293;DHT22;52402;52.670;6.750;2023-08-08T03:18:40;13.50;99.90
60293;DHT22;52402;52.670;6.750;2023-08-08T03:21:06;13.50;99.90
60293;DHT22;52402;52.670;6.750;2023-08-08T03:23:32;13.40;99.90
60293;DHT22;52402;52.670;6.750;2023-08-08T03:25:57;13.40;99.90
60293;DHT22;52402;52.670;6.750;2023-08-08T03:28:23;13.40;99.90
60293;DHT22;52402;52.670;6.750;2023-08-08T03:30:48;13.40;99.90
60293;DHT22;52402;52.670;6.750;2023-08-08T03:33:14;13.40;99.90
60293;DHT22;52402;52.670;6.750;2023-08-08T03:35:40;13.40;99.90
60293;DHT22;52402;52.670;6.750;2023-08-08T03:38:05;13.40;99.90
60293;DHT22;52402;52.670;6.750;2023-08-08T03:40:31;13.40;99.90
60293;DHT22;52402;52.670;6.750;2023-08-08T03:42:57;13.30;99.90
60293;DHT22;52402;52.670;6.750;2023-08-08T03:45:23;13.30;99.90
60293;DHT22;52402;52.670;6.750;2023-08-08T03:47:49;13.30;99.90
60293;DHT22;52402;52.670;6.750;2023-08-08T03:50:14;13.30;99.90
60293;DHT22;52402;52.670;6.750;2023-08-08T03:52:40;13.30;99.90
60293;DHT22;52402;52.670;6.750;2023-08-08T03:55:06;13.30;99.90
60293;DHT22;52402;52.670;6.750;2023-08-08T03:57:31;13.30;99.90
60293;DHT22;52402;52.670;6.750;2023-08-08T03:59:57;13.20;99.90
60293;DHT22;52402;52.670;6.750;2023-08-08T04:02:24;13.20;99.90
60293;DHT22;52402;52.670;6.750;2023-08-08T04:04:50;13.20;99.90
60293;DHT22;52402;52.670;6.750;2023-08-08T04:07:17;13.10;99.90
60293;DHT22;52402;52.670;6.750;2023-08-08T04:09:42;13.00;99.90
60293;DHT22;52402;52.670;6.750;2023-08-08T04:12:08;13.10;99.90
60293;DHT22;52402;52.670;6.750;2023-08-08T04:14:34;13.00;99.90
60293;DHT22;52402;52.670;6.750;2023-08-08T04:16:59;13.00;99.90
60293;DHT22;52402;52.670;6.750;2023-08-08T04:19:25;13.00;99.90
60293;DHT22;52402;52.670;6.750;2023-08-08T04:21:51;13.00;99.90
60293;DHT22;52402;52.670;6.750;2023-08-08T04:24:16;13.00;99.90
60293;DHT22;52402;52.670;6.750;2023-08-08T04:26:42;13.00;99.90
60293;DHT22;52402;52.670;6.750;2023-08-08T04:29:08;12.90;99.90
60293;DHT22;52402;52.670;6.750;2023-08-08T04:31:33;13.00;99.90
60293;DHT22;52402;52.670;6.750;2023-08-08T04:34:00;12.90;99.90
60293;DHT22;52402;52.670;6.750;2023-08-08T04:36:29;13.00;99.90
60293;DHT22;52402;52.670;6.750;2023-08-08T04:38:55;12.90;99.90
60293;DHT22;52402;52.670;6.750;2023-08-08T04:41:21;12.90;99.90
60293;DHT22;52402;52.670;6.750;2023-08-08T04:43:47;12.90;99.90
60293;DHT22;52402;52.670;6.750;2023-08-08T04:46:12;12.90;99.90
60293;DHT22;52402;52.670;6.750;2023-08-08T04:48:38;12.90;99.90
60293;DHT22;52402;52.670;6.750;2023-08-08T04:51:05;12.90;99.90
60293;DHT22;52402;52.670;6.750;2023-08-08T04:53:30;13.00;99.90
60293;DHT22;52402;52.670;6.750;2023-08-08T04:55:56;13.00;99.90
60293;DHT22;52402;52.670;6.750;2023-08-08T04:58:22;13.00;99.90
60293;DHT22;52402;52.670;6.750;2023-08-08T05:00:47;13.00;99.90
60293;DHT22;52402;52.670;6.750;2023-08-08T05:03:13;13.00;99.90
60293;DHT22;52402;52.670;6.750;2023-08-08T05:05:39;13.00;99.90
60293;DHT22;52402;52.670;6.750;2023-08-08T05:08:04;13.00;99.90
60293;DHT22;52402;52.670;6.750;2023-08-08T05:10:30;13.00;99.90
60293;DHT22;52402;52.670;6.750;2023-08-08T05:12:57;13.10;99.90
60293;DHT22;52402;52.670;6.750;2023-08-08T05:15:22;13.10;99.90
60293;DHT22;52402;52.670;6.750;2023-08-08T05:17:48;13.10;99.90
60293;DHT22;52402;52.670;6.750;2023-08-08T05:20:14;13.10;99.90
60293;DHT22;52402;52.670;6.750;2023-08-08T05:22:39;13.20;99.90
60293;DHT22;52402;52.670;6.750;2023-08-08T05:25:05;13.20;99.90
60293;DHT22;52402;52.670;6.750;2023-08-08T05:27:31;13.40;99.90
60293;DHT22;52402;52.670;6.750;2023-08-08T05:29:57;13.50;99.90
60293;DHT22;52402;52.670;6.750;2023-08-08T05:32:23;13.60;99.90
60293;DHT22;52402;52.670;6.750;2023-08-08T05:34:51;13.60;99.90
60293;DHT22;52402;52.670;6.750;2023-08-08T05:37:16;13.70;99.90
60293;DHT22;52402;52.670;6.750;2023-08-08T05:39:42;13.80;99.90
60293;DHT22;52402;52.670;6.750;2023-08-08T05:42:08;13.90;99.90
60293;DHT22;52402;52.670;6.750;2023-08-08T05:44:33;13.90;99.90
60293;DHT22;52402;52.670;6.750;2023-08-08T05:46:59;14.00;99.90
60293;DHT22;52402;52.670;6.750;2023-08-08T05:49:25;14.10;99.90
60293;DHT22;52402;52.670;6.750;2023-08-08T05:51:50;14.10;99.90
60293;DHT22;52402;52.670;6.750;2023-08-08T05:54:16;14.10;99.90
60293;DHT22;52402;52.670;6.750;2023-08-08T05:56:41;14.20;99.90
60293;DHT22;52402;52.670;6.750;2023-08-08T05:59:07;14.20;99.90
60293;DHT22;52402;52.670;6.750;2023-08-08T06:01:33;14.30;99.90
60293;DHT22;52402;52.670;6.750;2023-08-08T06:04:00;14.30;99.90
60293;DHT22;52402;52.670;6.750;2023-08-08T06:06:26;14.30;99.90
60293;DHT22;52402;52.670;6.750;2023-08-08T06:08:52;14.30;99.90
60293;DHT22;52402;52.670;6.750;2023-08-08T06:11:17;14.30;99.90
60293;DHT22;52402;52.670;6.750;2023-08-08T06:13:43;14.30;99.90
60293;DHT22;52402;52.670;6.750;2023-08-08T06:16:09;14.30;99.90
60293;DHT22;52402;52.670;6.750;2023-08-08T06:18:35;14.30;99.90
60293;DHT22;52402;52.670;6.750;2023-08-08T06:21:01;14.20;99.90
60293;DHT22;52402;52.670;6.750;2023-08-08T06:23:27;14.20;99.90
60293;DHT22;52402;52.670;6.750;2023-08-08T06:25:53;14.20;99.90
60293;DHT22;52402;52.670;6.750;2023-08-08T06:28:19;14.20;99.90
60293;DHT22;52402;52.670;6.750;2023-08-08T06:30:44;14.30;99.90
60293;DHT22;52402;52.670;6.750;2023-08-08T06:33:10;14.30;99.90
60293;DHT22;52402;52.670;6.750;2023-08-08T06:35:36;14.40;99.90
60293;DHT22;52402;52.670;6.750;2023-08-08T06:38:02;14.50;99.90
60293;DHT22;52402;52.670;6.750;2023-08-08T06:40:28;14.50;99.90
60293;DHT22;52402;52.670;6.750;2023-08-08T06:42:54;14.60;99.90
60293;DHT22;52402;52.670;6.750;2023-08-08T06:45:20;14.60;99.90
60293;DHT22;52402;52.670;6.750;2023-08-08T06:47:46;14.70;99.90
60293;DHT22;52402;52.670;6.750;2023-08-08T06:50:12;14.80;99.90
60293;DHT22;52402;52.670;6.750;2023-08-08T06:52:38;14.80;99.90
60293;DHT22;52402;52.670;6.750;2023-08-08T06:55:04;14.90;99.90
60293;DHT22;52402;52.670;6.750;2023-08-08T06:57:33;14.90;99.90
60293;DHT22;52402;52.670;6.750;2023-08-08T06:59:59;15.00;99.90
60293;DHT22;52402;52.670;6.750;2023-08-08T07:02:24;15.00;99.90
60293;DHT22;52402;52.670;6.750;2023-08-08T07:04:50;15.10;99.90
60293;DHT22;52402;52.670;6.750;2023-08-08T07:07:16;15.20;99.90
60293;DHT22;52402;52.670;6.750;2023-08-08T07:09:42;15.30;99.90
60293;DHT22;52402;52.670;6.750;2023-08-08T07:12:08;15.30;99.90
60293;DHT22;52402;52.670;6.750;2023-08-08T07:14:33;15.40;99.90
60293;DHT22;52402;52.670;6.750;2023-08-08T07:16:59;15.50;99.90
60293;DHT22;52402;52.670;6.750;2023-08-08T07:19:25;15.60;99.90
60293;DHT22;52402;52.670;6.750;2023-08-08T07:21:50;15.60;99.90
60293;DHT22;52402;52.670;6.750;2023-08-08T07:24:16;15.80;99.90
60293;DHT22;52402;52.670;6.750;2023-08-08T07:26:42;15.90;99.90
60293;DHT22;52402;52.670;6.750;2023-08-08T07:29:08;15.90;99.90
60293;DHT22;52402;52.670;6.750;2023-08-08T07:31:33;16.00;99.90
60293;DHT22;52402;52.670;6.750;2023-08-08T07:33:59;16.20;99.90
60293;DHT22;52402;52.670;6.750;2023-08-08T07:36:25;16.20;99.90
60293;DHT22;52402;52.670;6.750;2023-08-08T07:38:51;16.30;99.90
60293;DHT22;52402;52.670;6.750;2023-08-08T07:41:16;16.40;99.90
60293;DHT22;52402;52.670;6.750;2023-08-08T07:43:43;16.40;99.90
60293;DHT22;52402;52.670;6.750;2023-08-08T07:46:09;16.50;99.90
60293;DHT22;52402;52.670;6.750;2023-08-08T07:48:35;16.60;99.90
60293;DHT22;52402;52.670;6.750;2023-08-08T07:51:00;16.70;99.90
60293;DHT22;52402;52.670;6.750;2023-08-08T07:53:27;16.70;99.90
60293;DHT22;52402;52.670;6.750;2023-08-08T07:55:56;16.80;99.90
60293;DHT22;52402;52.670;6.750;2023-08-08T07:58:21;16.90;99.90
60293;DHT22;52402;52.670;6.750;2023-08-08T08:00:51;17.10;99.90
60293;DHT22;52402;52.670;6.750;2023-08-08T08:03:19;17.10;99.90
60293;DHT22;52402;52.670;6.750;2023-08-08T08:05:44;17.10;99.90
60293;DHT22;52402;52.670;6.750;2023-08-08T08:08:10;17.20;99.90
60293;DHT22;52402;52.670;6.750;2023-08-08T08:10:35;17.30;99.90
60293;DHT22;52402;52.670;6.750;2023-08-08T08:13:01;17.40;99.90
60293;DHT22;52402;52.670;6.750;2023-08-08T08:15:27;17.70;99.90
60293;DHT22;52402;52.670;6.750;2023-08-08T08:17:53;18.10;99.90
60293;DHT22;52402;52.670;6.750;2023-08-08T08:20:20;18.10;99.90
60293;DHT22;52402;52.670;6.750;2023-08-08T08:22:46;18.00;99.90
60293;DHT22;52402;52.670;6.750;2023-08-08T08:25:14;18.00;99.90
60293;DHT22;52402;52.670;6.750;2023-08-08T08:27:40;18.00;99.90
60293;DHT22;52402;52.670;6.750;2023-08-08T08:30:06;17.90;99.90
60293;DHT22;52402;52.670;6.750;2023-08-08T08:32:36;17.90;99.90
60293;DHT22;52402;52.670;6.750;2023-08-08T08:35:03;17.80;99.90
60293;DHT22;52402;52.670;6.750;2023-08-08T08:37:32;17.80;99.90
60293;DHT22;52402;52.670;6.750;2023-08-08T08:39:58;17.80;99.90
60293;DHT22;52402;52.670;6.750;2023-08-08T08:42:28;17.90;99.90
60293;DHT22;52402;52.670;6.750;2023-08-08T08:44:58;17.80;99.90
60293;DHT22;52402;52.670;6.750;2023-08-08T08:47:25;17.90;99.90
60293;DHT22;52402;52.670;6.750;2023-08-08T08:49:52;18.10;99.90
60293;DHT22;52402;52.670;6.750;2023-08-08T08:52:18;18.20;99.90
60293;DHT22;52402;52.670;6.750;2023-08-08T08:54:44;18.20;99.90
60293;DHT22;52402;52.670;6.750;2023-08-08T08:57:10;18.10;99.90
60293;DHT22;52402;52.670;6.750;2023-08-08T08:59:37;18.20;99.90
60293;DHT22;52402;52.670;6.750;2023-08-08T09:02:02;18.20;99.90
60293;DHT22;52402;52.670;6.750;2023-08-08T09:04:29;18.30;99.90
60293;DHT22;52402;52.670;6.750;2023-08-08T09:06:56;18.40;99.90
60293;DHT22;52402;52.670;6.750;2023-08-08T09:09:22;18.20;99.90
60293;DHT22;52402;52.670;6.750;2023-08-08T09:11:50;18.20;99.90
60293;DHT22;52402;52.670;6.750;2023-08-08T09:14:24;18.20;99.90
60293;DHT22;52402;52.670;6.750;2023-08-08T09:16:52;18.20;99.90
60293;DHT22;52402;52.670;6.750;2023-08-08T09:19:22;18.20;99.90
60293;DHT22;52402;52.670;6.750;2023-08-08T09:21:49;18.40;99.90
60293;DHT22;52402;52.670;6.750;2023-08-08T09:24:15;18.40;99.90
60293;DHT22;52402;52.670;6.750;2023-08-08T09:26:42;18.40;99.90
60293;DHT22;52402;52.670;6.750;2023-08-08T09:29:08;18.40;99.90
60293;DHT22;52402;52.670;6.750;2023-08-08T09:31:34;18.20;99.90
60293;DHT22;52402;52.670;6.750;2023-08-08T09:34:02;18.30;99.90
60293;DHT22;52402;52.670;6.750;2023-08-08T09:36:28;18.30;99.90
60293;DHT22;52402;52.670;6.750;2023-08-08T09:38:55;18.60;99.90
60293;DHT22;52402;52.670;6.750;2023-08-08T09:41:24;18.60;99.90
60293;DHT22;52402;52.670;6.750;2023-08-08T09:43:51;18.40;99.90
60293;DHT22;52402;52.670;6.750;2023-08-08T09:46:21;18.20;99.90
60293;DHT22;52402;52.670;6.750;2023-08-08T09:48:47;17.80;99.90
60293;DHT22;52402;52.670;6.750;2023-08-08T09:51:13;17.60;99.90
60293;DHT22;52402;52.670;6.750;2023-08-08T09:53:40;17.30;99.90
60293;DHT22;52402;52.670;6.750;2023-08-08T09:56:07;17.10;99.90
60293;DHT22;52402;52.670;6.750;2023-08-08T09:58:33;16.90;99.90
60293;DHT22;52402;52.670;6.750;2023-08-08T10:00:59;16.70;99.90
60293;DHT22;52402;52.670;6.750;2023-08-08T10:03:25;16.90;99.90
60293;DHT22;52402;52.670;6.750;2023-08-08T10:05:54;17.10;99.90
60293;DHT22;52402;52.670;6.750;2023-08-08T10:08:20;17.10;99.90
60293;DHT22;52402;52.670;6.750;2023-08-08T10:10:48;17.20;99.90
60293;DHT22;52402;52.670;6.750;2023-08-08T10:13:22;17.10;99.90
60293;DHT22;52402;52.670;6.750;2023-08-08T10:15:48;17.20;99.90
60293;DHT22;52402;52.670;6.750;2023-08-08T10:18:14;17.20;99.90
60293;DHT22;52402;52.670;6.750;2023-08-08T10:20:43;17.30;99.90
60293;DHT22;52402;52.670;6.750;2023-08-08T10:23:09;17.20;99.90
60293;DHT22;52402;52.670;6.750;2023-08-08T10:25:35;17.10;99.90
60293;DHT22;52402;52.670;6.750;2023-08-08T10:28:13;17.10;99.90
60293;DHT22;52402;52.670;6.750;2023-08-08T10:30:57;17.10;99.90
60293;DHT22;52402;52.670;6.750;2023-08-08T10:33:39;17.10;99.90
60293;DHT22;52402;52.670;6.750;2023-08-08T10:36:06;17.10;99.90
60293;DHT22;52402;52.670;6.750;2023-08-08T10:38:49;17.00;99.90
60293;DHT22;52402;52.670;6.750;2023-08-08T10:41:21;17.00;99.90
60293;DHT22;52402;52.670;6.750;2023-08-08T10:43:53;16.80;99.90
60293;DHT22;52402;52.670;6.750;2023-08-08T10:46:27;16.70;99.90
60293;DHT22;52402;52.670;6.750;2023-08-08T10:48:55;16.90;99.90
60293;DHT22;52402;52.670;6.750;2023-08-08T10:51:21;17.30;99.90
60293;DHT22;52402;52.670;6.750;2023-08-08T10:53:51;17.30;99.90
60293;DHT22;52402;52.670;6.750;2023-08-08T10:56:18;17.50;99.90
60293;DHT22;52402;52.670;6.750;2023-08-08T10:58:48;17.60;99.90
60293;DHT22;52402;52.670;6.750;2023-08-08T11:01:14;18.00;99.90
60293;DHT22;52402;52.670;6.750;2023-08-08T11:03:42;18.30;99.90
60293;DHT22;52402;52.670;6.750;2023-08-08T11:06:10;18.60;99.90
60293;DHT22;52402;52.670;6.750;2023-08-08T11:08:37;18.80;99.90
60293;DHT22;52402;52.670;6.750;2023-08-08T11:11:05;19.00;99.90
60293;DHT22;52402;52.670;6.750;2023-08-08T11:13:32;18.80;99.90
60293;DHT22;52402;52.670;6.750;2023-08-08T11:15:58;18.70;99.90
60293;DHT22;52402;52.670;6.750;2023-08-08T11:18:24;19.00;99.90
60293;DHT22;52402;52.670;6.750;2023-08-08T11:20:51;19.10;99.90
60293;DHT22;52402;52.670;6.750;2023-08-08T11:23:17;18.90;99.90
60293;DHT22;52402;52.670;6.750;2023-08-08T11:25:44;18.50;99.90
60293;DHT22;52402;52.670;6.750;2023-08-08T11:28:13;18.30;99.90
60293;DHT22;52402;52.670;6.750;2023-08-08T11:30:43;18.00;99.90
60293;DHT22;52402;52.670;6.750;2023-08-08T11:33:13;17.90;99.90
60293;DHT22;52402;52.670;6.750;2023-08-08T11:35:43;17.80;99.90
60293;DHT22;52402;52.670;6.750;2023-08-08T11:38:11;17.50;99.90
60293;DHT22;52402;52.670;6.750;2023-08-08T11:40:38;18.00;99.90
60293;DHT22;52402;52.670;6.750;2023-08-08T11:43:04;18.30;99.90
60293;DHT22;52402;52.670;6.750;2023-08-08T11:45:31;18.50;99.90
60293;DHT22;52402;52.670;6.750;2023-08-08T11:47:57;18.60;99.90
60293;DHT22;52402;52.670;6.750;2023-08-08T11:50:24;18.30;99.90
60293;DHT22;52402;52.670;6.750;2023-08-08T11:52:54;18.20;99.90
60293;DHT22;52402;52.670;6.750;2023-08-08T11:55:20;18.00;99.90
60293;DHT22;52402;52.670;6.750;2023-08-08T11:57:54;17.60;99.90
60293;DHT22;52402;52.670;6.750;2023-08-08T12:00:27;17.50;99.90
60293;DHT22;52402;52.670;6.750;2023-08-08T12:02:54;17.30;99.90
60293;DHT22;52402;52.670;6.750;2023-08-08T12:05:21;17.30;99.90
60293;DHT22;52402;52.670;6.750;2023-08-08T12:07:48;17.30;99.90
60293;DHT22;52402;52.670;6.750;2023-08-08T12:10:21;17.20;99.90
60293;DHT22;52402;52.670;6.750;2023-08-08T12:12:53;17.30;99.90
60293;DHT22;52402;52.670;6.750;2023-08-08T12:15:19;17.30;99.90
60293;DHT22;52402;52.670;6.750;2023-08-08T12:17:46;17.40;99.90
60293;DHT22;52402;52.670;6.750;2023-08-08T12:20:14;17.70;99.90
60293;DHT22;52402;52.670;6.750;2023-08-08T12:22:40;18.20;99.90
60293;DHT22;52402;52.670;6.750;2023-08-08T12:25:06;18.50;99.90
60293;DHT22;52402;52.670;6.750;2023-08-08T12:27:33;18.70;99.90
60293;DHT22;52402;52.670;6.750;2023-08-08T12:29:59;18.70;99.90
60293;DHT22;52402;52.670;6.750;2023-08-08T12:32:26;18.90;99.90
60293;DHT22;52402;52.670;6.750;2023-08-08T12:34:54;19.20;99.90
60293;DHT22;52402;52.670;6.750;2023-08-08T12:37:21;19.60;99.90
60293;DHT22;52402;52.670;6.750;2023-08-08T12:39:46;20.00;99.90
60293;DHT22;52402;52.670;6.750;2023-08-08T12:42:12;20.40;99.90
60293;DHT22;52402;52.670;6.750;2023-08-08T12:44:38;20.70;99.90
60293;DHT22;52402;52.670;6.750;2023-08-08T12:47:06;20.80;99.90
60293;DHT22;52402;52.670;6.750;2023-08-08T12:49:32;20.90;99.90
60293;DHT22;52402;52.670;6.750;2023-08-08T12:51:57;21.00;99.90
60293;DHT22;52402;52.670;6.750;2023-08-08T12:54:23;20.80;99.90
60293;DHT22;52402;52.670;6.750;2023-08-08T12:56:49;20.60;99.90
60293;DHT22;52402;52.670;6.750;2023-08-08T12:59:14;19.70;99.90
60293;DHT22;52402;52.670;6.750;2023-08-08T13:01:40;19.30;99.90
60293;DHT22;52402;52.670;6.750;2023-08-08T13:04:06;18.90;99.90
60293;DHT22;52402;52.670;6.750;2023-08-08T13:06:31;18.70;99.90
60293;DHT22;52402;52.670;6.750;2023-08-08T13:08:58;18.60;99.90
60293;DHT22;52402;52.670;6.750;2023-08-08T13:11:24;18.90;99.90
60293;DHT22;52402;52.670;6.750;2023-08-08T13:13:50;19.00;99.90
60293;DHT22;52402;52.670;6.750;2023-08-08T13:16:16;18.90;99.90
60293;DHT22;52402;52.670;6.750;2023-08-08T13:18:41;18.90;99.90
60293;DHT22;52402;52.670;6.750;2023-08-08T13:21:07;18.60;99.90
60293;DHT22;52402;52.670;6.750;2023-08-08T13:23:33;18.40;99.90
60293;DHT22;52402;52.670;6.750;2023-08-08T13:25:58;18.50;99.90
60293;DHT22;52402;52.670;6.750;2023-08-08T13:28:24;18.50;99.90
60293;DHT22;52402;52.670;6.750;2023-08-08T13:30:50;18.80;99.90
60293;DHT22;52402;52.670;6.750;2023-08-08T13:33:15;19.10;99.90
60293;DHT22;52402;52.670;6.750;2023-08-08T13:35:41;19.20;99.90
60293;DHT22;52402;52.670;6.750;2023-08-08T13:38:07;19.50;99.90
60293;DHT22;52402;52.670;6.750;2023-08-08T13:40:41;19.70;99.90
60293;DHT22;52402;52.670;6.750;2023-08-08T13:43:07;19.60;99.90
60293;DHT22;52402;52.670;6.750;2023-08-08T13:45:32;19.00;99.90
60293;DHT22;52402;52.670;6.750;2023-08-08T13:47:58;18.60;99.90
60293;DHT22;52402;52.670;6.750;2023-08-08T13:50:24;18.20;99.90
60293;DHT22;52402;52.670;6.750;2023-08-08T13:52:49;18.20;99.90
60293;DHT22;52402;52.670;6.750;2023-08-08T13:55:15;17.80;99.90
60293;DHT22;52402;52.670;6.750;2023-08-08T13:57:40;17.70;99.90
60293;DHT22;52402;52.670;6.750;2023-08-08T14:00:06;17.50;99.90
60293;DHT22;52402;52.670;6.750;2023-08-08T14:02:36;17.30;99.90
60293;DHT22;52402;52.670;6.750;2023-08-08T14:05:01;17.00;99.90
60293;DHT22;52402;52.670;6.750;2023-08-08T14:07:27;16.90;99.90
60293;DHT22;52402;52.670;6.750;2023-08-08T14:09:53;16.80;99.90
60293;DHT22;52402;52.670;6.750;2023-08-08T14:12:19;17.00;99.90
60293;DHT22;52402;52.670;6.750;2023-08-08T14:14:44;17.00;99.90
60293;DHT22;52402;52.670;6.750;2023-08-08T14:17:10;17.30;99.90
60293;DHT22;52402;52.670;6.750;2023-08-08T14:19:36;17.80;99.90
60293;DHT22;52402;52.670;6.750;2023-08-08T14:22:01;18.00;99.90
60293;DHT22;52402;52.670;6.750;2023-08-08T14:24:27;18.00;99.90
60293;DHT22;52402;52.670;6.750;2023-08-08T14:26:52;17.90;99.90
60293;DHT22;52402;52.670;6.750;2023-08-08T14:29:18;17.70;99.90
60293;DHT22;52402;52.670;6.750;2023-08-08T14:31:43;17.60;99.90
60293;DHT22;52402;52.670;6.750;2023-08-08T14:34:09;17.50;99.90
60293;DHT22;52402;52.670;6.750;2023-08-08T14:36:35;17.30;99.90
60293;DHT22;52402;52.670;6.750;2023-08-08T14:39:00;17.30;99.90
60293;DHT22;52402;52.670;6.750;2023-08-08T14:41:26;17.30;99.90
60293;DHT22;52402;52.670;6.750;2023-08-08T14:43:52;17.40;99.90
60293;DHT22;52402;52.670;6.750;2023-08-08T14:46:17;17.40;99.90
60293;DHT22;52402;52.670;6.750;2023-08-08T14:48:43;17.30;99.90
60293;DHT22;52402;52.670;6.750;2023-08-08T14:51:09;17.40;99.90
60293;DHT22;52402;52.670;6.750;2023-08-08T14:53:34;17.70;99.90
60293;DHT22;52402;52.670;6.750;2023-08-08T14:56:00;17.90;99.90
60293;DHT22;52402;52.670;6.750;2023-08-08T14:58:25;18.00;99.90
60293;DHT22;52402;52.670;6.750;2023-08-08T15:00:51;17.90;99.90
60293;DHT22;52402;52.670;6.750;2023-08-08T15:03:17;17.80;99.90
60293;DHT22;52402;52.670;6.750;2023-08-08T15:05:44;17.60;99.90
60293;DHT22;52402;52.670;6.750;2023-08-08T15:08:11;17.20;99.90
60293;DHT22;52402;52.670;6.750;2023-08-08T15:10:37;17.10;99.90
60293;DHT22;52402;52.670;6.750;2023-08-08T15:13:02;17.10;99.90
60293;DHT22;52402;52.670;6.750;2023-08-08T15:15:28;16.90;99.90
60293;DHT22;52402;52.670;6.750;2023-08-08T15:17:55;16.90;99.90
60293;DHT22;52402;52.670;6.750;2023-08-08T15:20:21;16.90;99.90
60293;DHT22;52402;52.670;6.750;2023-08-08T15:22:46;17.00;99.90
60293;DHT22;52402;52.670;6.750;2023-08-08T15:25:12;17.00;99.90
60293;DHT22;52402;52.670;6.750;2023-08-08T15:27:37;17.00;99.90